Terminal Aerodrome Forecast
Issued by NWS

Home | Current Version | Previous Version | Text Only | Print | Product List | Glossary On
Versions: 1 2 3 4 5 6 7 8 9 10 11 12 13
000
FTUS43 KSGF 192300
TAFBBG
TAF
KBBG 192320Z 2000/2024 15010KT P6SM SCT250
     FM200100 14005KT P6SM BKN250
     FM201400 17008KT P6SM SCT045 BKN150=

USA.gov is the U.S. government's official web portal to all federal, state and local government web resources and services.